createdAt,value
2018-06-29T00:00:02.670Z,97799.92
2018-06-29T00:02:31.284Z,97805.02
2018-06-29T00:05:00.732Z,97805.94
2018-06-29T00:07:29.458Z,97807.19
2018-06-29T00:09:58.834Z,97804.68
2018-06-29T00:12:27.523Z,97808.53
2018-06-29T00:14:56.913Z,97807.30
2018-06-29T00:17:25.567Z,97814.23
2018-06-29T00:19:54.584Z,97813.31
2018-06-29T00:22:23.506Z,97812.52
2018-06-29T00:24:52.191Z,97821.37
2018-06-29T00:27:20.851Z,97816.82
2018-06-29T00:29:49.479Z,97815.34
2018-06-29T00:32:18.295Z,97814.88
2018-06-29T00:34:46.959Z,97814.67
2018-06-29T00:37:15.725Z,97817.39
2018-06-29T00:39:44.570Z,97817.86
2018-06-29T00:42:13.859Z,97814.44
2018-06-29T00:44:43.040Z,97809.67
2018-06-29T00:47:11.918Z,97813.99
2018-06-29T00:49:40.636Z,97818.98
2018-06-29T00:52:09.261Z,97812.40
2018-06-29T00:54:37.934Z,97811.05
2018-06-29T00:57:07.036Z,97802.55
2018-06-29T00:59:36.037Z,97805.25
2018-06-29T01:02:04.743Z,97805.14
2018-06-29T01:04:33.399Z,97807.86
2018-06-29T01:07:02.173Z,97807.17
2018-06-29T01:09:30.854Z,97816.03
2018-06-29T01:11:59.751Z,97810.02
2018-06-29T01:14:29.108Z,97813.85
2018-06-29T01:16:57.878Z,97814.64
2018-06-29T01:19:26.564Z,97812.03
2018-06-29T01:21:55.384Z,97813.52
2018-06-29T01:24:24.692Z,97808.41
2018-06-29T01:26:54.042Z,97806.25
2018-06-29T01:29:22.700Z,97802.97
2018-06-29T01:31:51.353Z,97804.53
2018-06-29T01:34:20.800Z,97809.08
2018-06-29T01:36:49.492Z,97803.40
2018-06-29T01:39:19.208Z,97801.80
2018-06-29T01:41:47.835Z,97799.09
2018-06-29T01:44:16.524Z,97794.80
2018-06-29T01:46:45.375Z,97791.95
2018-06-29T01:49:14.114Z,97796.50
2018-06-29T01:51:42.811Z,97793.44
2018-06-29T01:54:11.392Z,97791.05
2018-06-29T01:56:40.247Z,97787.81
2018-06-29T01:59:08.991Z,97790.56
2018-06-29T02:01:37.705Z,97794.21
2018-06-29T02:04:06.691Z,97790.48
2018-06-29T02:06:35.576Z,97787.62
2018-06-29T02:09:06.536Z,97792.41
2018-06-29T02:11:35.136Z,97798.09
2018-06-29T02:14:04.348Z,97795.56
2018-06-29T02:16:33.203Z,97787.20
2018-06-29T02:19:01.791Z,97793.44
2018-06-29T02:21:30.458Z,97793.88
2018-06-29T02:23:59.070Z,97794.33
2018-06-29T02:26:27.722Z,97791.73
2018-06-29T02:28:57.178Z,97786.75
2018-06-29T02:31:25.835Z,97787.19
2018-06-29T02:33:54.398Z,97786.86
2018-06-29T02:36:23.803Z,97787.88
2018-06-29T02:38:53.110Z,97788.33
2018-06-29T02:41:21.751Z,97791.15
2018-06-29T02:43:50.635Z,97784.13
2018-06-29T02:46:19.473Z,97779.23
2018-06-29T02:48:48.433Z,97775.61
2018-06-29T02:51:17.098Z,97769.04
2018-06-29T02:53:46.302Z,97771.32
2018-06-29T02:56:15.294Z,97765.41
2018-06-29T02:58:44.027Z,97764.84
2018-06-29T03:01:13.454Z,97773.35
2018-06-29T03:03:42.149Z,97766.31
2018-06-29T03:06:10.983Z,97766.31
2018-06-29T03:08:39.830Z,97764.62
2018-06-29T03:11:08.634Z,97768.70
2018-06-29T03:13:37.250Z,97772.68
2018-06-29T03:16:05.973Z,97774.38
2018-06-29T03:18:35.124Z,97770.19
2018-06-29T03:21:04.932Z,97768.80
2018-06-29T03:23:33.980Z,97773.44
2018-06-29T03:26:02.774Z,97770.64
2018-06-29T03:28:31.511Z,97764.06
2018-06-29T03:31:00.201Z,97759.98
2018-06-29T03:33:29.630Z,97756.76
2018-06-29T03:35:58.264Z,97752.91
2018-06-29T03:38:26.978Z,97759.70
2018-06-29T03:40:55.749Z,97759.39
2018-06-29T03:43:24.495Z,97758.72
2018-06-29T03:45:53.728Z,97758.72
2018-06-29T03:48:22.395Z,97747.31
2018-06-29T03:50:51.371Z,97751.75
2018-06-29T03:53:20.033Z,97753.67
2018-06-29T03:55:48.697Z,97747.45
2018-06-29T03:58:17.407Z,97746.34
2018-06-29T04:00:46.101Z,97748.17
2018-06-29T04:03:15.000Z,97751.46
2018-06-29T04:05:43.769Z,97748.52
2018-06-29T04:08:12.560Z,97753.84
2018-06-29T04:10:41.362Z,97755.20
2018-06-29T04:13:10.767Z,97748.62
2018-06-29T04:15:39.380Z,97744.41
2018-06-29T04:18:08.177Z,97753.61
2018-06-29T04:20:36.853Z,97748.64
2018-06-29T04:23:06.068Z,97746.47
2018-06-29T04:25:34.833Z,97737.27
2018-06-29T04:28:03.579Z,97745.22
2018-06-29T04:30:32.476Z,97739.19
2018-06-29T04:33:01.160Z,97742.25
2018-06-29T04:35:29.878Z,97740.20
2018-06-29T04:37:59.312Z,97737.70
2018-06-29T04:40:32.037Z,97733.28
2018-06-29T04:43:00.964Z,97738.64
2018-06-29T04:45:29.675Z,97740.80
2018-06-29T04:47:58.740Z,97746.58
2018-06-29T04:50:27.562Z,97739.33
2018-06-29T04:52:56.632Z,97751.77
2018-06-29T04:55:25.251Z,97749.41
2018-06-29T04:57:53.953Z,97748.97
2018-06-29T05:00:24.311Z,97743.40
2018-06-29T05:02:53.056Z,97751.23
2018-06-29T05:05:22.297Z,97753.04
2018-06-29T05:07:50.956Z,97751.11
2018-06-29T05:10:20.320Z,97750.44
2018-06-29T05:12:48.992Z,97754.75
2018-06-29T05:15:18.703Z,97748.62
2018-06-29T05:17:47.508Z,97746.59
2018-06-29T05:20:16.462Z,97745.70
2018-06-29T05:22:45.163Z,97747.51
2018-06-29T05:25:13.782Z,97746.27
2018-06-29T05:27:42.426Z,97743.08
2018-06-29T05:30:11.580Z,97732.45
2018-06-29T05:32:40.296Z,97723.38
2018-06-29T05:35:09.010Z,97716.97
2018-06-29T05:37:37.697Z,97719.17
2018-06-29T05:40:06.594Z,97724.12
2018-06-29T05:42:35.483Z,97731.13
2018-06-29T05:45:04.174Z,97737.86
2018-06-29T05:47:32.865Z,97744.53
2018-06-29T05:50:01.601Z,97747.59
2018-06-29T05:52:30.987Z,97754.75
2018-06-29T05:54:59.736Z,97750.50
2018-06-29T05:57:28.908Z,97762.20
2018-06-29T05:59:58.579Z,97757.54
2018-06-29T06:02:28.092Z,97751.71
2018-06-29T06:04:56.801Z,97747.58
2018-06-29T06:07:25.443Z,97743.70
2018-06-29T06:09:54.264Z,97744.38
2018-06-29T06:12:23.070Z,97746.36
2018-06-29T06:14:51.759Z,97754.09
2018-06-29T06:17:21.039Z,97751.06
2018-06-29T06:20:00.864Z,97764.20
2018-06-29T06:22:30.705Z,97753.75
2018-06-29T06:25:00.264Z,97763.86
2018-06-29T06:27:29.359Z,97763.91
2018-06-29T06:29:58.880Z,97758.11
2018-06-29T06:32:28.101Z,97771.18
2018-06-29T06:34:56.851Z,97769.82
2018-06-29T06:37:25.547Z,97757.92
2018-06-29T06:39:55.313Z,97761.56
2018-06-29T06:42:24.168Z,97765.23
2018-06-29T06:44:52.827Z,97756.76
2018-06-29T06:47:21.596Z,97764.36
2018-06-29T06:49:51.382Z,97769.23
2018-06-29T06:52:20.032Z,97757.59
2018-06-29T06:54:48.773Z,97763.23
2018-06-29T06:57:17.567Z,97761.36
2018-06-29T06:59:46.537Z,97760.35
2018-06-29T07:02:15.526Z,97758.17
2018-06-29T07:04:45.906Z,97760.84
2018-06-29T07:07:14.623Z,97754.50
2018-06-29T07:09:43.769Z,97754.59
2018-06-29T07:12:12.465Z,97758.81
2018-06-29T07:14:41.127Z,97755.44
2018-06-29T07:17:10.571Z,97756.03
2018-06-29T07:19:39.270Z,97751.38
2018-06-29T07:22:08.428Z,97754.33
2018-06-29T07:24:38.169Z,97753.84
2018-06-29T07:27:07.458Z,97753.27
2018-06-29T07:29:37.197Z,97757.88
2018-06-29T07:32:06.693Z,97749.89
2018-06-29T07:34:36.257Z,97744.78
2018-06-29T07:37:05.067Z,97748.92
2018-06-29T07:39:34.676Z,97754.79
2018-06-29T07:42:04.197Z,97746.19
2018-06-29T07:44:33.316Z,97748.34
2018-06-29T07:47:02.062Z,97746.33
2018-06-29T07:49:31.626Z,97750.47
2018-06-29T07:52:00.696Z,97747.32
2018-06-29T07:54:29.820Z,97753.18
2018-06-29T07:56:59.965Z,97749.19
2018-06-29T07:59:28.719Z,97758.20
2018-06-29T08:02:04.389Z,97760.52
2018-06-29T08:04:33.694Z,97769.23
2018-06-29T08:07:02.540Z,97773.99
2018-06-29T08:09:31.264Z,97770.41
2018-06-29T08:12:00.474Z,97776.73
2018-06-29T08:14:30.487Z,97769.23
2018-06-29T08:16:59.456Z,97774.78
2018-06-29T08:19:28.234Z,97782.41
2018-06-29T08:21:56.965Z,97782.91
2018-06-29T08:24:25.897Z,97778.73
2018-06-29T08:26:54.981Z,97779.82
2018-06-29T08:29:24.214Z,97774.65
2018-06-29T08:31:55.260Z,97777.80
2018-06-29T08:34:24.436Z,97774.55
2018-06-29T08:36:53.130Z,97782.17
2018-06-29T08:39:21.831Z,97783.13
2018-06-29T08:41:50.765Z,97776.59
2018-06-29T08:44:19.638Z,97771.39
2018-06-29T08:46:49.181Z,97771.10
2018-06-29T08:49:17.905Z,97779.11
2018-06-29T08:51:46.674Z,97775.35
2018-06-29T08:54:15.871Z,97780.84
2018-06-29T08:56:44.701Z,97775.22
2018-06-29T08:59:13.771Z,97771.62
2018-06-29T09:01:42.919Z,97770.18
2018-06-29T09:04:12.127Z,97773.20
2018-06-29T09:06:41.134Z,97762.44
2018-06-29T09:09:10.171Z,97768.59
2018-06-29T09:11:39.288Z,97762.52
2018-06-29T09:14:08.058Z,97760.37
2018-06-29T09:16:37.139Z,97756.43
2018-06-29T09:19:06.043Z,97751.87
2018-06-29T09:21:34.754Z,97758.43
2018-06-29T09:24:03.690Z,97745.92
2018-06-29T09:26:32.414Z,97749.89
2018-06-29T09:29:01.815Z,97747.25
2018-06-29T09:31:31.204Z,97744.30
2018-06-29T09:33:59.912Z,97749.00
2018-06-29T09:36:30.036Z,97750.31
2018-06-29T09:38:59.103Z,97746.41
2018-06-29T09:41:29.349Z,97749.08
2018-06-29T09:43:58.380Z,97749.41
2018-06-29T09:46:27.603Z,97740.76
2018-06-29T09:48:56.329Z,97744.91
2018-06-29T09:51:25.448Z,97737.94
2018-06-29T09:53:54.663Z,97734.48
2018-06-29T09:56:23.562Z,97735.75
2018-06-29T09:58:52.610Z,97739.85
2018-06-29T10:01:21.485Z,97730.98
2018-06-29T10:03:51.337Z,97736.11
2018-06-29T10:06:20.311Z,97722.67
2018-06-29T10:08:49.051Z,97721.02
2018-06-29T10:11:17.861Z,97726.95
2018-06-29T10:13:47.814Z,97731.52
2018-06-29T10:16:16.490Z,97730.80
2018-06-29T10:18:45.869Z,97736.70
2018-06-29T10:21:15.514Z,97736.81
2018-06-29T10:23:44.241Z,97733.69
2018-06-29T10:26:13.029Z,97725.95
2018-06-29T10:28:42.095Z,97728.61
2018-06-29T10:31:11.591Z,97725.52
2018-06-29T10:33:40.514Z,97727.03
2018-06-29T10:36:09.163Z,97729.87
2018-06-29T10:38:37.988Z,97717.91
2018-06-29T10:41:06.976Z,97719.36
2018-06-29T10:43:35.674Z,97715.97
2018-06-29T10:46:04.412Z,97714.16
2018-06-29T10:48:34.046Z,97703.34
2018-06-29T10:51:03.270Z,97707.31
2018-06-29T10:53:32.655Z,97705.14
2018-06-29T10:56:02.333Z,97702.05
2018-06-29T10:58:30.999Z,97707.41
2018-06-29T11:01:00.677Z,97703.47
2018-06-29T11:03:29.505Z,97700.33
2018-06-29T11:05:58.171Z,97700.17
2018-06-29T11:08:28.002Z,97700.97
2018-06-29T11:10:56.693Z,97694.30
2018-06-29T11:13:27.196Z,97693.97
2018-06-29T11:15:56.331Z,97685.31
2018-06-29T11:18:25.405Z,97679.42
2018-06-29T11:20:54.103Z,97682.74
2018-06-29T11:23:22.851Z,97686.69
2018-06-29T11:25:53.525Z,97676.45
2018-06-29T11:28:22.450Z,97672.86
2018-06-29T11:30:51.216Z,97679.88
2018-06-29T11:33:20.731Z,97684.57
2018-06-29T11:35:50.362Z,97680.27
2018-06-29T11:38:19.231Z,97679.39
2018-06-29T11:40:48.750Z,97678.98
2018-06-29T11:43:17.375Z,97677.06
2018-06-29T11:45:46.141Z,97671.84
2018-06-29T11:48:15.566Z,97669.52
2018-06-29T11:50:44.241Z,97665.56
2018-06-29T11:53:12.938Z,97663.80
2018-06-29T11:55:41.624Z,97655.18
2018-06-29T11:58:10.335Z,97652.79
2018-06-29T12:00:39.538Z,97657.95
2018-06-29T12:03:09.105Z,97654.00
2018-06-29T12:05:37.862Z,97660.69
2018-06-29T12:08:07.634Z,97653.61
2018-06-29T12:10:36.844Z,97658.93
2018-06-29T12:13:05.757Z,97661.11
2018-06-29T12:15:34.917Z,97655.55
2018-06-29T12:18:03.680Z,97648.48
2018-06-29T12:20:33.281Z,97650.28
2018-06-29T12:23:03.467Z,97644.16
2018-06-29T12:25:33.315Z,97639.41
2018-06-29T12:28:03.565Z,97633.70
2018-06-29T12:30:32.276Z,97637.23
2018-06-29T12:33:00.966Z,97641.38
2018-06-29T12:35:29.633Z,97639.56
2018-06-29T12:37:58.598Z,97636.45
2018-06-29T12:40:29.906Z,97635.27
2018-06-29T12:42:59.259Z,97637.46
2018-06-29T12:45:28.912Z,97638.22
2018-06-29T12:47:57.772Z,97633.79
2018-06-29T12:50:26.841Z,97627.41
2018-06-29T12:52:56.354Z,97629.41
2018-06-29T12:55:25.184Z,97623.44
2018-06-29T12:57:54.076Z,97619.12
2018-06-29T13:00:22.971Z,97624.25
2018-06-29T13:02:52.659Z,97621.72
2018-06-29T13:05:21.404Z,97618.29
2018-06-29T13:07:50.369Z,97619.20
2018-06-29T13:10:19.111Z,97617.65
2018-06-29T13:12:47.825Z,97625.97
2018-06-29T13:15:16.519Z,97618.91
2018-06-29T13:17:45.899Z,97619.50
2018-06-29T13:20:14.893Z,97597.09
2018-06-29T13:22:43.651Z,97608.59
2018-06-29T13:25:12.734Z,97615.06
2018-06-29T13:27:41.905Z,97604.54
2018-06-29T13:30:10.624Z,97606.34
2018-06-29T13:32:39.514Z,97602.21
2018-06-29T13:35:08.806Z,97602.48
2018-06-29T13:37:38.542Z,97603.29
2018-06-29T13:40:07.360Z,97597.44
2018-06-29T13:42:37.693Z,97587.55
2018-06-29T13:45:06.358Z,97590.30
2018-06-29T13:47:36.106Z,97579.53
2018-06-29T13:50:06.020Z,97578.62
2018-06-29T13:52:35.035Z,97580.50
2018-06-29T13:55:05.251Z,97575.48
2018-06-29T13:57:34.039Z,97574.12
2018-06-29T14:00:03.719Z,97571.00
2018-06-29T14:02:33.591Z,97569.25
2018-06-29T14:05:02.313Z,97570.99
2018-06-29T14:07:32.487Z,97565.97
2018-06-29T14:10:01.594Z,97568.41
2018-06-29T14:12:31.600Z,97569.23
2018-06-29T14:15:01.335Z,97567.17
2018-06-29T14:17:30.439Z,97569.45
2018-06-29T14:19:59.440Z,97565.64
2018-06-29T14:22:30.698Z,97562.17
2018-06-29T14:25:00.165Z,97561.25
2018-06-29T14:27:29.595Z,97555.83
2018-06-29T14:29:58.369Z,97551.80
2018-06-29T14:32:27.238Z,97555.83
2018-06-29T14:34:56.192Z,97552.54
2018-06-29T14:37:24.838Z,97547.50
2018-06-29T14:39:53.615Z,97554.03
2018-06-29T14:42:22.366Z,97552.83
2018-06-29T14:44:51.449Z,97554.03
2018-06-29T14:47:20.166Z,97551.02
2018-06-29T14:49:48.848Z,97551.61
2018-06-29T14:52:17.565Z,97547.20
2018-06-29T14:54:47.047Z,97540.06
2018-06-29T14:57:16.383Z,97541.94
2018-06-29T14:59:45.897Z,97537.66
2018-06-29T15:02:14.543Z,97539.91
2018-06-29T15:04:43.204Z,97533.75
2018-06-29T15:07:12.626Z,97525.66
2018-06-29T15:09:42.371Z,97533.29
2018-06-29T15:12:11.245Z,97528.77
2018-06-29T15:14:40.147Z,97523.77
2018-06-29T15:17:09.502Z,97518.31
2018-06-29T15:19:38.172Z,97522.31
2018-06-29T15:22:06.917Z,97529.92
2018-06-29T15:24:35.892Z,97526.75
2018-06-29T15:27:05.113Z,97522.75
2018-06-29T15:29:33.819Z,97523.12
2018-06-29T15:32:02.527Z,97522.45
2018-06-29T15:34:31.890Z,97514.73
2018-06-29T15:37:00.521Z,97515.31
2018-06-29T15:39:29.730Z,97518.90
2018-06-29T15:41:58.440Z,97514.04
2018-06-29T15:44:27.106Z,97505.51
2018-06-29T15:46:56.438Z,97510.86
2018-06-29T15:49:25.159Z,97507.66
2018-06-29T15:51:53.994Z,97511.63
2018-06-29T15:54:23.416Z,97506.94
2018-06-29T15:56:52.036Z,97507.61
2018-06-29T15:59:20.861Z,97511.21
2018-06-29T16:01:49.887Z,97506.74
2018-06-29T16:04:18.613Z,97509.17
2018-06-29T16:06:47.661Z,97500.95
2018-06-29T16:09:16.355Z,97510.84
2018-06-29T16:11:45.078Z,97504.55
2018-06-29T16:14:13.804Z,97505.95
2018-06-29T16:16:42.532Z,97505.95
2018-06-29T16:19:11.231Z,97506.76
2018-06-29T16:21:41.832Z,97497.35
2018-06-29T16:24:10.550Z,97492.45
2018-06-29T16:26:39.198Z,97486.14
2018-06-29T16:29:07.935Z,97496.41
2018-06-29T16:31:36.757Z,97498.58
2018-06-29T16:34:06.072Z,97494.63
2018-06-29T16:36:34.657Z,97497.23
2018-06-29T16:39:05.084Z,97493.52
2018-06-29T16:41:33.889Z,97490.58
2018-06-29T16:44:02.473Z,97497.88
2018-06-29T16:46:31.211Z,97499.70
2018-06-29T16:48:59.900Z,97492.44
2018-06-29T16:51:29.425Z,97497.58
2018-06-29T16:53:58.707Z,97505.24
2018-06-29T16:56:27.358Z,97497.88
2018-06-29T16:58:56.010Z,97496.00
2018-06-29T17:01:24.881Z,97495.46
2018-06-29T17:03:53.652Z,97501.98
2018-06-29T17:06:22.458Z,97499.43
2018-06-29T17:08:51.160Z,97494.52
2018-06-29T17:11:19.797Z,97499.89
2018-06-29T17:13:48.736Z,97494.16
2018-06-29T17:16:17.412Z,97489.25
2018-06-29T17:18:47.279Z,97492.41
2018-06-29T17:21:16.029Z,97486.89
2018-06-29T17:23:44.838Z,97494.37
2018-06-29T17:26:14.014Z,97486.53
2018-06-29T17:28:42.956Z,97486.55
2018-06-29T17:31:11.726Z,97481.23
2018-06-29T17:33:40.687Z,97486.55
2018-06-29T17:36:10.609Z,97483.84
2018-06-29T17:38:40.778Z,97479.13
2018-06-29T17:41:10.257Z,97486.25
2018-06-29T17:43:39.009Z,97478.19
2018-06-29T17:46:08.666Z,97486.06
2018-06-29T17:48:37.583Z,97488.39
2018-06-29T17:51:07.123Z,97482.08
2018-06-29T17:53:36.010Z,97485.42
2018-06-29T17:56:04.956Z,97481.88
2018-06-29T17:58:34.288Z,97487.20
2018-06-29T18:01:02.992Z,97488.58
2018-06-29T18:03:32.428Z,97484.25
2018-06-29T18:06:01.769Z,97483.45
2018-06-29T18:08:30.452Z,97479.91
2018-06-29T18:10:59.151Z,97489.95
2018-06-29T18:13:27.905Z,97490.59
2018-06-29T18:15:56.978Z,97490.00
2018-06-29T18:18:25.810Z,97489.77
2018-06-29T18:20:54.794Z,97485.08
2018-06-29T18:23:23.810Z,97490.98
2018-06-29T18:25:52.511Z,97495.67
2018-06-29T18:28:21.877Z,97492.72
2018-06-29T18:30:50.782Z,97496.06
2018-06-29T18:33:19.443Z,97492.91
2018-06-29T18:35:49.744Z,97493.69
2018-06-29T18:38:18.696Z,97497.83
2018-06-29T18:40:47.440Z,97498.58
2018-06-29T18:43:16.154Z,97498.81
2018-06-29T18:45:45.890Z,97490.94
2018-06-29T18:48:14.859Z,97500.98
2018-06-29T18:50:45.792Z,97495.87
2018-06-29T18:53:16.382Z,97501.19
2018-06-29T18:55:46.916Z,97499.61
2018-06-29T18:58:15.765Z,97491.39
2018-06-29T19:00:45.231Z,97497.09
2018-06-29T19:03:14.820Z,97500.87
2018-06-29T19:05:45.181Z,97501.23
2018-06-29T19:08:13.879Z,97501.03
2018-06-29T19:10:42.550Z,97505.95
2018-06-29T19:13:11.345Z,97502.02
2018-06-29T19:15:41.405Z,97506.15
2018-06-29T19:18:13.997Z,97506.34
2018-06-29T19:20:43.734Z,97510.90
2018-06-29T19:23:12.389Z,97513.84
2018-06-29T19:25:46.225Z,97504.03
2018-06-29T19:28:17.919Z,97506.39
2018-06-29T19:30:50.169Z,97507.17
2018-06-29T19:33:20.850Z,97511.69
2018-06-29T19:35:56.081Z,97512.08
2018-06-29T19:38:31.314Z,97512.66
2018-06-29T19:41:03.910Z,97519.56
2018-06-29T19:43:34.645Z,97520.69
2018-06-29T19:46:06.967Z,97519.85
2018-06-29T19:48:38.984Z,97518.10
2018-06-29T19:51:11.071Z,97525.33
2018-06-29T19:53:41.414Z,97527.88
2018-06-29T19:56:13.377Z,97519.25
2018-06-29T19:58:44.485Z,97524.55
2018-06-29T20:01:15.979Z,97525.14
2018-06-29T20:03:48.090Z,97532.41
2018-06-29T20:06:21.304Z,97538.66
2018-06-29T20:08:53.604Z,97533.84
2018-06-29T20:11:25.669Z,97532.42
2018-06-29T20:13:56.600Z,97538.83
2018-06-29T20:16:27.554Z,97542.84
2018-06-29T20:19:02.335Z,97535.57
2018-06-29T20:21:34.086Z,97536.45
2018-06-29T20:24:05.731Z,97536.27
2018-06-29T20:26:40.870Z,97537.06
2018-06-29T20:29:12.955Z,97548.28
2018-06-29T20:31:45.393Z,97547.47
2018-06-29T20:34:16.696Z,97544.52
2018-06-29T20:36:51.634Z,97544.56
2018-06-29T20:39:25.488Z,97543.36
2018-06-29T20:42:01.233Z,97556.58
2018-06-29T20:44:32.297Z,97547.34
2018-06-29T20:47:07.489Z,97552.94
2018-06-29T20:49:38.717Z,97550.02
2018-06-29T20:52:13.903Z,97551.56
2018-06-29T20:54:46.784Z,97559.59
2018-06-29T20:57:17.802Z,97554.04
2018-06-29T20:59:49.265Z,97552.38
2018-06-29T21:02:20.544Z,97551.34
2018-06-29T21:04:54.575Z,97548.52
2018-06-29T21:07:25.235Z,97549.44
2018-06-29T21:10:03.836Z,97546.44
2018-06-29T21:12:40.276Z,97542.41
2018-06-29T21:15:12.709Z,97541.88
2018-06-29T21:17:43.609Z,97543.74
2018-06-29T21:20:18.055Z,97540.16
2018-06-29T21:22:50.205Z,97539.89
2018-06-29T21:25:22.003Z,97546.44
2018-06-29T21:27:52.824Z,97542.36
2018-06-29T21:30:23.984Z,97543.11
2018-06-29T21:32:55.274Z,97549.30
2018-06-29T21:35:25.952Z,97541.76
2018-06-29T21:37:58.693Z,97543.97
2018-06-29T21:40:30.734Z,97544.29
2018-06-29T21:43:02.278Z,97542.97
2018-06-29T21:45:35.467Z,97546.61
2018-06-29T21:48:07.108Z,97540.22
2018-06-29T21:50:38.489Z,97547.19
2018-06-29T21:53:09.837Z,97548.42
2018-06-29T21:55:41.029Z,97544.23
2018-06-29T21:58:11.602Z,97545.45
2018-06-29T22:00:45.890Z,97539.70
2018-06-29T22:03:15.004Z,97538.75
2018-06-29T22:05:44.184Z,97543.66
2018-06-29T22:08:13.261Z,97537.44
2018-06-29T22:10:42.075Z,97533.41
2018-06-29T22:13:11.090Z,97526.88
2018-06-29T22:15:39.906Z,97534.67
2018-06-29T22:18:09.252Z,97538.38
2018-06-29T22:20:37.963Z,97537.17
2018-06-29T22:23:06.660Z,97530.42
2018-06-29T22:25:35.961Z,97536.76
2018-06-29T22:28:05.708Z,97533.23
2018-06-29T22:30:35.838Z,97535.11
2018-06-29T22:33:04.543Z,97534.05
2018-06-29T22:35:34.384Z,97531.25
2018-06-29T22:38:03.286Z,97532.23
2018-06-29T22:40:32.063Z,97528.03
2018-06-29T22:43:00.779Z,97526.45
2018-06-29T22:45:29.467Z,97522.44
2018-06-29T22:47:58.135Z,97531.34
2018-06-29T22:50:26.845Z,97522.27
2018-06-29T22:52:55.490Z,97529.27
2018-06-29T22:55:24.196Z,97532.80
2018-06-29T22:57:52.856Z,97529.35
2018-06-29T23:00:21.622Z,97525.36
2018-06-29T23:02:50.344Z,97517.95
2018-06-29T23:05:19.259Z,97527.30
2018-06-29T23:07:48.578Z,97525.08
2018-06-29T23:10:17.955Z,97522.43
2018-06-29T23:12:46.640Z,97520.95
2018-06-29T23:15:15.316Z,97516.78
2018-06-29T23:17:44.188Z,97517.87
2018-06-29T23:20:13.129Z,97516.28
2018-06-29T23:22:41.821Z,97518.38
2018-06-29T23:25:10.468Z,97521.86
2018-06-29T23:27:39.077Z,97520.06
2018-06-29T23:30:07.924Z,97519.99
2018-06-29T23:32:36.927Z,97522.66
2018-06-29T23:35:05.848Z,97514.53
2018-06-29T23:37:34.772Z,97510.47
2018-06-29T23:40:03.550Z,97520.36
2018-06-29T23:42:32.200Z,97512.38
2018-06-29T23:45:01.213Z,97514.20
2018-06-29T23:47:30.444Z,97508.36
2018-06-29T23:49:59.512Z,97508.14
2018-06-29T23:52:28.261Z,97512.60
2018-06-29T23:54:57.505Z,97506.78
2018-06-29T23:57:26.162Z,97506.23
2018-06-29T23:59:55.101Z,97505.20
